Time;durP1;ratioP1;P1;durP2;ratioP2;P2;SDS_P1;SDS_P2;PMS_P1;PMS_P2;Temp;Humidity;BMP_temperature;BMP_pressure;BME280_temperature;BME280_humidity;BME280_pressure;Samples;Min_cycle;Max_cycle;Signal;HPM_P1;HPM_P2
2023/06/26 00:01:13;;;;;;;;;;;21.50;99.90;;;;;;5092785;28;19970;-76
2023/06/26 00:03:39;;;;;;;;;;;21.50;99.90;;;;;;5092119;28;20415;-77
2023/06/26 00:06:05;;;;;;;;;;;21.50;99.90;;;;;;5092255;28;20006;-77
2023/06/26 00:08:30;;;;;;;;;;;21.50;99.90;;;;;;5092562;28;19916;-78
2023/06/26 00:10:56;;;;;;;;;;;21.40;99.90;;;;;;5091986;28;19995;-76
2023/06/26 00:13:22;;;;;;;;;;;21.40;99.90;;;;;;5092344;28;19970;-76
2023/06/26 00:15:47;;;;;;;;;;;21.40;99.90;;;;;;5091965;28;19965;-76
2023/06/26 00:18:13;;;;;;;;;;;21.30;99.90;;;;;;5091901;28;19923;-78
2023/06/26 00:20:39;;;;;;;;;;;21.30;99.90;;;;;;5092245;28;19922;-78
2023/06/26 00:23:07;;;;;;;;;;;21.30;99.90;;;;;;5091934;28;19932;-78
2023/06/26 00:25:35;;;;;;;;;;;21.30;99.90;;;;;;5093698;28;19931;-78
2023/06/26 00:28:01;;;;;;;;;;;21.20;99.90;;;;;;5092275;28;19920;-76
2023/06/26 00:30:27;;;;;;;;;;;21.20;99.90;;;;;;5075490;28;19927;-79
2023/06/26 00:32:52;;;;;;;;;;;21.30;99.90;;;;;;5091491;28;19915;-78
2023/06/26 00:35:18;;;;;;;;;;;21.30;99.90;;;;;;5091784;28;19928;-78
2023/06/26 00:37:44;;;;;;;;;;;21.30;99.90;;;;;;5091824;28;19966;-77
2023/06/26 00:40:16;;;;;;;;;;;21.30;99.90;;;;;;5092281;28;19923;-77
2023/06/26 00:42:42;;;;;;;;;;;21.20;99.90;;;;;;5091774;28;20369;-77
2023/06/26 00:45:07;;;;;;;;;;;21.20;99.90;;;;;;5091338;28;19931;-77
2023/06/26 00:47:33;;;;;;;;;;;21.20;99.90;;;;;;5091761;28;20053;-76
2023/06/26 00:49:59;;;;;;;;;;;21.20;99.90;;;;;;5091351;28;19916;-78
2023/06/26 00:52:25;;;;;;;;;;;21.20;99.90;;;;;;5092070;28;19955;-77
2023/06/26 00:54:53;;;;;;;;;;;21.20;99.90;;;;;;5092542;28;19923;-77
2023/06/26 00:57:19;;;;;;;;;;;21.20;99.90;;;;;;5092317;28;20338;-77
2023/06/26 00:59:45;;;;;;;;;;;21.20;99.90;;;;;;5091468;28;20012;-77
2023/06/26 01:02:18;;;;;;;;;;;21.20;99.90;;;;;;5093258;28;20010;-77
2023/06/26 01:04:46;;;;;;;;;;;21.10;99.90;;;;;;5091766;28;20178;-77
2023/06/26 01:07:13;;;;;;;;;;;21.10;99.90;;;;;;5091503;28;19944;-78
2023/06/26 01:09:38;;;;;;;;;;;21.10;99.90;;;;;;5091340;28;19920;-76
2023/06/26 01:12:04;;;;;;;;;;;21.00;99.90;;;;;;5090694;28;19930;-77
2023/06/26 01:14:30;;;;;;;;;;;21.00;99.90;;;;;;5090756;28;19923;-76
2023/06/26 01:17:00;;;;;;;;;;;21.00;99.90;;;;;;5091847;28;19916;-75
2023/06/26 01:19:30;;;;;;;;;;;21.00;99.90;;;;;;5090924;28;19923;-76
2023/06/26 01:21:59;;;;;;;;;;;21.00;99.90;;;;;;5090816;28;20280;-77
2023/06/26 01:24:27;;;;;;;;;;;21.00;99.90;;;;;;5074337;28;19920;-77
2023/06/26 01:26:53;;;;;;;;;;;21.00;99.90;;;;;;5090385;28;19920;-77
2023/06/26 01:29:19;;;;;;;;;;;20.90;99.90;;;;;;5090612;28;19938;-76
2023/06/26 01:31:47;;;;;;;;;;;20.90;99.90;;;;;;5090746;28;19920;-77
2023/06/26 01:34:14;;;;;;;;;;;20.90;99.90;;;;;;5073696;28;19924;-77
2023/06/26 01:36:39;;;;;;;;;;;20.90;99.90;;;;;;5090618;28;19916;-76
2023/06/26 01:39:05;;;;;;;;;;;20.90;99.90;;;;;;5090109;28;19973;-76
2023/06/26 01:41:30;;;;;;;;;;;20.80;99.90;;;;;;5073474;28;19919;-77
2023/06/26 01:44:05;;;;;;;;;;;20.80;99.90;;;;;;5090704;28;19965;-77
2023/06/26 01:46:53;;;;;;;;;;;20.80;99.90;;;;;;5090567;28;19916;-76
2023/06/26 01:49:25;;;;;;;;;;;20.80;99.90;;;;;;5072470;28;19916;-78
2023/06/26 01:52:06;;;;;;;;;;;20.80;99.90;;;;;;5090261;28;19965;-76
2023/06/26 01:54:36;;;;;;;;;;;20.70;99.90;;;;;;5090157;28;20258;-76
2023/06/26 01:57:02;;;;;;;;;;;20.70;99.90;;;;;;5089524;28;19923;-76
2023/06/26 01:59:31;;;;;;;;;;;20.70;99.90;;;;;;5090411;28;20011;-76
2023/06/26 02:01:56;;;;;;;;;;;20.70;99.90;;;;;;5089862;28;20319;-77
2023/06/26 02:04:22;;;;;;;;;;;20.60;99.90;;;;;;5073112;28;19919;-76
2023/06/26 02:06:47;;;;;;;;;;;20.60;99.90;;;;;;5090564;28;20034;-76
2023/06/26 02:09:13;;;;;;;;;;;20.60;99.90;;;;;;5090117;28;19973;-77
2023/06/26 02:11:38;;;;;;;;;;;20.60;99.90;;;;;;5089589;28;19920;-77
2023/06/26 02:14:04;;;;;;;;;;;20.50;99.90;;;;;;5072989;28;19920;-78
2023/06/26 02:16:31;;;;;;;;;;;20.50;99.90;;;;;;5090772;28;19916;-76
2023/06/26 02:18:57;;;;;;;;;;;20.50;99.90;;;;;;5089753;28;19916;-77
2023/06/26 02:21:23;;;;;;;;;;;20.50;99.90;;;;;;5123823;27;19923;-78
2023/06/26 02:23:49;;;;;;;;;;;20.50;99.90;;;;;;5089779;28;20253;-77
2023/06/26 02:26:14;;;;;;;;;;;20.50;99.90;;;;;;5089352;28;20003;-77
2023/06/26 02:28:40;;;;;;;;;;;20.60;99.90;;;;;;5089777;28;19923;-76
2023/06/26 02:31:05;;;;;;;;;;;20.70;99.90;;;;;;5089422;28;19945;-78
2023/06/26 02:33:32;;;;;;;;;;;20.70;99.90;;;;;;5089429;28;20365;-77
2023/06/26 02:35:57;;;;;;;;;;;20.80;99.90;;;;;;5072346;28;19959;-78
2023/06/26 02:38:23;;;;;;;;;;;21.00;99.90;;;;;;5089212;28;19982;-77
2023/06/26 02:40:48;;;;;;;;;;;21.10;99.90;;;;;;5089497;28;19916;-76
2023/06/26 02:43:14;;;;;;;;;;;21.10;99.90;;;;;;5089170;28;19976;-76
2023/06/26 02:45:41;;;;;;;;;;;21.10;99.90;;;;;;5072562;28;19920;-78
2023/06/26 02:48:09;;;;;;;;;;;21.20;99.90;;;;;;5089330;28;19920;-78
2023/06/26 02:50:35;;;;;;;;;;;21.20;99.90;;;;;;5089282;28;19927;-75
2023/06/26 02:53:00;;;;;;;;;;;21.20;99.90;;;;;;5089049;28;19920;-76
2023/06/26 02:55:26;;;;;;;;;;;21.20;99.90;;;;;;5088978;28;20404;-77
2023/06/26 02:57:52;;;;;;;;;;;21.20;99.90;;;;;;5088576;28;19916;-77
2023/06/26 03:00:17;;;;;;;;;;;21.30;99.90;;;;;;5070909;28;19920;-77
2023/06/26 03:02:43;;;;;;;;;;;21.70;99.90;;;;;;5088552;28;19916;-77
2023/06/26 03:05:09;;;;;;;;;;;21.40;99.90;;;;;;5087638;28;20383;-77
2023/06/26 03:07:34;;;;;;;;;;;21.40;99.90;;;;;;5088753;28;19927;-78
2023/06/26 03:10:00;;;;;;;;;;;21.40;99.90;;;;;;5088456;28;19924;-76
2023/06/26 03:12:25;;;;;;;;;;;21.50;99.90;;;;;;5089999;28;19920;-77
2023/06/26 03:14:51;;;;;;;;;;;21.50;99.90;;;;;;5089466;28;19931;-75
2023/06/26 03:17:17;;;;;;;;;;;21.60;99.90;;;;;;5088902;28;19919;-77
2023/06/26 03:19:42;;;;;;;;;;;21.60;99.90;;;;;;5089455;28;19969;-77
2023/06/26 03:22:08;;;;;;;;;;;21.70;99.90;;;;;;5073498;28;20353;-76
2023/06/26 03:24:33;;;;;;;;;;;21.70;99.90;;;;;;5076145;28;20276;-77
2023/06/26 03:26:59;;;;;;;;;;;21.70;99.90;;;;;;5092665;28;19916;-77
2023/06/26 03:29:29;;;;;;;;;;;21.80;99.90;;;;;;5094496;28;19924;-77
2023/06/26 03:31:55;;;;;;;;;;;21.80;99.90;;;;;;5093087;28;19927;-79
2023/06/26 03:34:21;;;;;;;;;;;21.80;99.90;;;;;;5092490;28;20274;-76
2023/06/26 03:36:48;;;;;;;;;;;21.90;99.90;;;;;;5109655;28;19928;-77
2023/06/26 03:39:13;;;;;;;;;;;21.90;99.90;;;;;;5075682;28;19965;-77
2023/06/26 03:41:39;;;;;;;;;;;21.90;99.90;;;;;;5092871;28;20337;-77
2023/06/26 03:44:04;;;;;;;;;;;21.90;99.90;;;;;;5092235;28;19927;-76
2023/06/26 03:46:30;;;;;;;;;;;21.80;99.90;;;;;;5093285;28;19930;-79
2023/06/26 03:48:56;;;;;;;;;;;21.80;99.90;;;;;;5075964;28;19949;-77
2023/06/26 03:51:21;;;;;;;;;;;21.80;99.90;;;;;;5075764;28;19916;-76
2023/06/26 03:53:55;;;;;;;;;;;21.80;99.90;;;;;;5094235;28;20351;-78
2023/06/26 03:56:20;;;;;;;;;;;21.80;99.90;;;;;;5075639;28;19920;-77
2023/06/26 03:58:46;;;;;;;;;;;21.70;99.90;;;;;;5092693;28;19965;-77
2023/06/26 04:01:11;;;;;;;;;;;21.70;99.90;;;;;;5092243;28;19924;-77
2023/06/26 04:03:43;;;;;;;;;;;21.70;99.90;;;;;;5092384;28;20673;-76
2023/06/26 04:06:09;;;;;;;;;;;21.70;99.90;;;;;;5092104;28;19920;-79
2023/06/26 04:08:40;;;;;;;;;;;21.70;99.90;;;;;;5076825;28;20319;-76
2023/06/26 04:11:06;;;;;;;;;;;21.60;99.90;;;;;;5092299;28;19920;-78
2023/06/26 04:13:32;;;;;;;;;;;21.60;99.90;;;;;;5075401;28;19920;-76
2023/06/26 04:15:57;;;;;;;;;;;21.60;99.90;;;;;;5092593;28;19924;-77
2023/06/26 04:18:26;;;;;;;;;;;21.60;99.90;;;;;;5093629;28;19919;-76
2023/06/26 04:21:11;;;;;;;;;;;21.50;99.90;;;;;;5092714;28;20293;-77
2023/06/26 04:23:38;;;;;;;;;;;21.60;99.90;;;;;;5091985;28;20018;-76
2023/06/26 04:26:07;;;;;;;;;;;21.60;99.90;;;;;;5075306;28;19920;-78
2023/06/26 04:28:33;;;;;;;;;;;21.60;99.90;;;;;;5109674;28;20273;-78
2023/06/26 04:30:59;;;;;;;;;;;21.70;99.90;;;;;;5092072;28;20611;-76
2023/06/26 04:33:26;;;;;;;;;;;21.80;99.90;;;;;;5090861;28;19930;-76
2023/06/26 04:35:51;;;;;;;;;;;21.80;99.90;;;;;;5092669;28;19920;-77
2023/06/26 04:38:18;;;;;;;;;;;21.90;99.90;;;;;;5074495;28;19931;-78
2023/06/26 04:40:43;;;;;;;;;;;22.00;99.90;;;;;;5091928;28;19916;-78
2023/06/26 04:43:09;;;;;;;;;;;22.00;99.90;;;;;;5091636;28;20395;-76
2023/06/26 04:45:35;;;;;;;;;;;22.10;99.90;;;;;;5092215;28;19920;-79
2023/06/26 04:48:01;;;;;;;;;;;22.10;99.90;;;;;;5091630;28;19920;-78
2023/06/26 04:50:28;;;;;;;;;;;22.10;99.90;;;;;;5091099;28;19916;-78
2023/06/26 04:52:57;;;;;;;;;;;22.20;99.90;;;;;;5058382;28;19916;-76
2023/06/26 04:55:26;;;;;;;;;;;22.20;99.90;;;;;;5091126;28;19924;-77
2023/06/26 04:57:53;;;;;;;;;;;22.20;99.90;;;;;;5074840;28;20357;-79
2023/06/26 05:00:18;;;;;;;;;;;22.10;99.90;;;;;;5091575;28;20365;-79
2023/06/26 05:02:44;;;;;;;;;;;22.00;99.90;;;;;;5091456;28;20028;-78
2023/06/26 05:05:10;;;;;;;;;;;21.80;99.90;;;;;;5074704;28;19920;-76
2023/06/26 05:07:36;;;;;;;;;;;21.60;99.90;;;;;;5091690;28;19923;-79
2023/06/26 05:10:01;;;;;;;;;;;21.50;99.90;;;;;;5074874;28;19919;-78
2023/06/26 05:12:27;;;;;;;;;;;21.30;99.90;;;;;;5058050;28;19942;-78
2023/06/26 05:14:52;;;;;;;;;;;21.20;99.90;;;;;;5091511;28;19958;-76
2023/06/26 05:17:18;;;;;;;;;;;21.10;99.90;;;;;;5073849;28;20440;-77
2023/06/26 05:19:44;;;;;;;;;;;21.00;99.90;;;;;;5091520;28;20009;-76
2023/06/26 05:22:10;;;;;;;;;;;20.90;99.90;;;;;;5090743;28;19926;-77
2023/06/26 05:24:38;;;;;;;;;;;20.80;99.90;;;;;;5090849;28;19921;-77
2023/06/26 05:27:04;;;;;;;;;;;20.80;99.90;;;;;;5090701;28;19920;-78
2023/06/26 05:29:33;;;;;;;;;;;20.80;99.90;;;;;;5073858;28;20299;-77
2023/06/26 05:31:59;;;;;;;;;;;20.70;99.90;;;;;;5090849;28;19966;-80
2023/06/26 05:34:28;;;;;;;;;;;20.70;99.90;;;;;;5090768;28;19935;-74
2023/06/26 05:36:57;;;;;;;;;;;20.60;99.90;;;;;;5090476;28;19924;-77
2023/06/26 05:39:24;;;;;;;;;;;20.50;99.90;;;;;;5073591;28;20262;-77
2023/06/26 05:41:50;;;;;;;;;;;20.40;99.90;;;;;;5090595;28;20412;-80
2023/06/26 05:44:15;;;;;;;;;;;20.30;99.90;;;;;;5089998;28;19963;-76
2023/06/26 05:46:41;;;;;;;;;;;20.20;99.90;;;;;;5090872;28;19922;-79
2023/06/26 05:49:07;;;;;;;;;;;20.20;99.90;;;;;;5090111;28;20380;-78
2023/06/26 05:51:33;;;;;;;;;;;20.10;99.90;;;;;;5090427;28;19916;-78
2023/06/26 05:53:58;;;;;;;;;;;20.00;99.90;;;;;;5090652;28;20312;-77
2023/06/26 05:56:24;;;;;;;;;;;20.00;99.90;;;;;;5090490;28;19927;-77
2023/06/26 05:58:51;;;;;;;;;;;19.90;99.90;;;;;;5090695;28;19974;-77
2023/06/26 06:01:17;;;;;;;;;;;19.90;99.90;;;;;;5089738;28;19998;-77
2023/06/26 06:03:42;;;;;;;;;;;19.80;99.90;;;;;;5090622;28;20006;-77
2023/06/26 06:06:08;;;;;;;;;;;19.80;99.90;;;;;;5089897;28;20360;-76
2023/06/26 06:08:34;;;;;;;;;;;19.90;99.90;;;;;;5089860;28;20365;-78
2023/06/26 06:10:59;;;;;;;;;;;20.00;99.90;;;;;;5090300;28;19920;-77
2023/06/26 06:13:25;;;;;;;;;;;20.20;99.90;;;;;;5090213;28;19923;-78
2023/06/26 06:15:51;;;;;;;;;;;20.40;99.90;;;;;;5073513;28;19923;-78
2023/06/26 06:18:17;;;;;;;;;;;20.70;99.90;;;;;;5090101;28;20311;-77
2023/06/26 06:20:42;;;;;;;;;;;20.70;99.90;;;;;;5090559;28;20002;-78
2023/06/26 06:23:08;;;;;;;;;;;20.70;99.90;;;;;;5090042;28;19920;-77
2023/06/26 06:25:33;;;;;;;;;;;20.50;99.90;;;;;;5089589;28;19936;-76
2023/06/26 06:28:05;;;;;;;;;;;20.40;99.90;;;;;;5091387;28;19931;-78
2023/06/26 06:30:31;;;;;;;;;;;20.30;99.90;;;;;;5072466;28;19920;-77
2023/06/26 06:32:57;;;;;;;;;;;20.20;99.90;;;;;;5090364;28;19915;-79
2023/06/26 06:35:23;;;;;;;;;;;20.20;99.90;;;;;;5089899;28;20652;-76
2023/06/26 06:37:49;;;;;;;;;;;20.20;99.90;;;;;;5072723;28;19926;-77
2023/06/26 06:40:14;;;;;;;;;;;20.30;99.90;;;;;;5089719;28;19926;-77
2023/06/26 06:42:40;;;;;;;;;;;20.40;99.90;;;;;;5089983;28;20006;-77
2023/06/26 06:45:06;;;;;;;;;;;20.60;99.90;;;;;;5090759;28;19987;-77
2023/06/26 06:47:32;;;;;;;;;;;20.70;99.90;;;;;;5089636;28;19920;-77
2023/06/26 06:49:58;;;;;;;;;;;20.90;99.90;;;;;;5073046;28;19922;-77
2023/06/26 06:52:24;;;;;;;;;;;20.90;99.90;;;;;;5089603;28;19916;-78
2023/06/26 06:54:53;;;;;;;;;;;21.00;99.90;;;;;;5089094;28;19923;-78
2023/06/26 06:57:21;;;;;;;;;;;21.00;99.90;;;;;;5091363;28;19923;-78
2023/06/26 06:59:47;;;;;;;;;;;21.00;99.90;;;;;;5093665;28;19924;-76
2023/06/26 07:02:17;;;;;;;;;;;21.10;99.90;;;;;;5095142;28;20315;-77
2023/06/26 07:04:42;;;;;;;;;;;21.10;99.90;;;;;;5093785;28;19972;-78
2023/06/26 07:07:08;;;;;;;;;;;21.10;99.90;;;;;;5093702;28;19920;-78
2023/06/26 07:09:34;;;;;;;;;;;21.10;99.90;;;;;;5092870;28;19925;-76
2023/06/26 07:12:00;;;;;;;;;;;21.20;99.90;;;;;;5093584;28;19982;-76
2023/06/26 07:14:25;;;;;;;;;;;21.40;99.90;;;;;;5076557;28;19923;-76
2023/06/26 07:16:51;;;;;;;;;;;21.50;99.90;;;;;;5094562;28;20021;-77
2023/06/26 07:19:16;;;;;;;;;;;21.60;99.90;;;;;;5077705;28;20531;-78
2023/06/26 07:21:44;;;;;;;;;;;21.50;99.90;;;;;;5076877;28;19923;-79
2023/06/26 07:24:10;;;;;;;;;;;21.50;99.90;;;;;;5093710;28;19916;-78
2023/06/26 07:26:36;;;;;;;;;;;21.70;99.90;;;;;;5059549;28;19923;-77
2023/06/26 07:29:01;;;;;;;;;;;21.70;99.90;;;;;;5093930;28;19920;-76
2023/06/26 07:31:27;;;;;;;;;;;21.70;99.90;;;;;;5093392;28;19928;-77
2023/06/26 07:33:52;;;;;;;;;;;21.70;99.90;;;;;;5127757;27;19920;-76
2023/06/26 07:36:18;;;;;;;;;;;21.60;99.90;;;;;;5093281;28;19924;-78
2023/06/26 07:38:44;;;;;;;;;;;21.60;99.90;;;;;;5076356;28;19924;-77
2023/06/26 07:41:09;;;;;;;;;;;21.80;99.90;;;;;;5076251;28;19920;-78
2023/06/26 07:43:35;;;;;;;;;;;21.80;99.90;;;;;;5075944;28;19916;-78
2023/06/26 07:46:00;;;;;;;;;;;21.70;99.90;;;;;;5093213;28;20364;-76
2023/06/26 07:48:26;;;;;;;;;;;21.70;99.90;;;;;;5092767;28;20011;-78
2023/06/26 07:50:51;;;;;;;;;;;21.70;99.90;;;;;;5092695;28;20431;-76
2023/06/26 07:53:17;;;;;;;;;;;21.60;99.90;;;;;;5076221;28;19920;-76
2023/06/26 07:55:43;;;;;;;;;;;21.60;99.90;;;;;;5092701;28;20396;-77
2023/06/26 07:58:09;;;;;;;;;;;21.70;99.90;;;;;;5092822;28;19963;-78
2023/06/26 08:00:34;;;;;;;;;;;21.70;99.90;;;;;;5092838;28;20303;-76
2023/06/26 08:03:00;;;;;;;;;;;21.80;99.90;;;;;;5092969;28;19942;-78
2023/06/26 08:05:25;;;;;;;;;;;22.00;99.90;;;;;;5075740;28;19927;-79
2023/06/26 08:07:51;;;;;;;;;;;22.00;99.90;;;;;;5091552;28;19999;-76
2023/06/26 08:10:17;;;;;;;;;;;22.10;99.90;;;;;;5075182;28;19916;-77
2023/06/26 08:12:44;;;;;;;;;;;22.10;99.90;;;;;;5092277;28;19920;-79
2023/06/26 08:15:11;;;;;;;;;;;22.10;99.90;;;;;;5075285;28;19953;-77
2023/06/26 08:17:36;;;;;;;;;;;22.10;99.90;;;;;;5091637;28;20559;-77
2023/06/26 08:20:02;;;;;;;;;;;22.20;99.90;;;;;;5092245;28;19916;-76
2023/06/26 08:22:28;;;;;;;;;;;22.20;99.90;;;;;;5092896;28;19972;-77
2023/06/26 08:24:54;;;;;;;;;;;22.30;99.90;;;;;;5092356;28;20361;-78
2023/06/26 08:27:19;;;;;;;;;;;22.20;99.90;;;;;;5075551;28;19920;-77
2023/06/26 08:29:45;;;;;;;;;;;22.20;99.90;;;;;;5091567;28;20359;-78
2023/06/26 08:32:11;;;;;;;;;;;22.10;99.90;;;;;;5075578;28;19919;-79
2023/06/26 08:34:37;;;;;;;;;;;22.30;99.90;;;;;;5092206;28;20360;-77
2023/06/26 08:37:03;;;;;;;;;;;22.40;99.90;;;;;;5091770;28;19935;-78
2023/06/26 08:39:28;;;;;;;;;;;22.40;99.90;;;;;;5091405;28;19920;-78
2023/06/26 08:41:54;;;;;;;;;;;22.40;99.90;;;;;;5075041;28;19924;-77
2023/06/26 08:44:23;;;;;;;;;;;22.40;99.90;;;;;;5093217;28;20319;-77
2023/06/26 08:46:49;;;;;;;;;;;22.50;99.90;;;;;;5091717;28;19919;-77
2023/06/26 08:49:19;;;;;;;;;;;22.50;99.90;;;;;;5091269;28;19969;-78
2023/06/26 08:51:50;;;;;;;;;;;22.50;99.90;;;;;;5091656;28;20400;-77
2023/06/26 08:54:17;;;;;;;;;;;22.30;99.90;;;;;;5091770;28;20423;-79
2023/06/26 08:56:44;;;;;;;;;;;22.10;99.90;;;;;;5091341;28;19959;-79
2023/06/26 08:59:14;;;;;;;;;;;22.10;99.90;;;;;;5091921;28;19922;-77
2023/06/26 09:01:41;;;;;;;;;;;22.30;99.90;;;;;;5091295;28;19943;-79
2023/06/26 09:04:06;;;;;;;;;;;22.60;99.90;;;;;;5091361;28;19973;-77
2023/06/26 09:06:33;;;;;;;;;;;22.80;99.90;;;;;;5090975;28;19920;-79
2023/06/26 09:08:58;;;;;;;;;;;22.80;99.90;;;;;;5091479;28;19992;-76
2023/06/26 09:11:24;;;;;;;;;;;22.70;99.90;;;;;;5091659;28;20323;-77
2023/06/26 09:13:50;;;;;;;;;;;22.90;99.90;;;;;;5090916;28;19920;-78
2023/06/26 09:16:16;;;;;;;;;;;23.10;99.90;;;;;;5091044;28;19931;-78
2023/06/26 09:18:42;;;;;;;;;;;23.20;99.90;;;;;;5090755;28;19916;-77
2023/06/26 09:21:08;;;;;;;;;;;23.20;99.90;;;;;;5107793;28;19916;-76
2023/06/26 09:23:35;;;;;;;;;;;23.10;99.90;;;;;;5091503;28;19971;-77
2023/06/26 09:26:06;;;;;;;;;;;23.00;99.90;;;;;;5074522;28;19920;-78
2023/06/26 09:28:33;;;;;;;;;;;23.10;99.90;;;;;;5125197;27;19966;-78
2023/06/26 09:31:03;;;;;;;;;;;23.40;99.90;;;;;;5074639;28;19972;-77
2023/06/26 09:33:33;;;;;;;;;;;23.20;99.90;;;;;;5090815;28;19963;-76
2023/06/26 09:36:12;;;;;;;;;;;22.90;99.90;;;;;;5092076;28;19924;-78
2023/06/26 09:38:38;;;;;;;;;;;22.80;99.90;;;;;;5090040;28;19920;-77
2023/06/26 09:41:04;;;;;;;;;;;22.90;99.90;;;;;;5091308;28;19920;-77
2023/06/26 09:43:31;;;;;;;;;;;23.10;99.90;;;;;;5090140;28;19981;-76
2023/06/26 09:45:58;;;;;;;;;;;23.20;99.90;;;;;;5074070;28;19969;-77
2023/06/26 09:48:24;;;;;;;;;;;23.20;99.90;;;;;;5073369;28;19958;-77
2023/06/26 09:50:49;;;;;;;;;;;23.00;99.90;;;;;;5058241;28;19956;-79
2023/06/26 09:53:15;;;;;;;;;;;22.80;99.90;;;;;;5070510;28;19925;-79
2023/06/26 09:55:43;;;;;;;;;;;22.90;99.90;;;;;;5069545;28;20377;-75
2023/06/26 09:58:15;;;;;;;;;;;22.90;99.90;;;;;;5104096;28;19916;-76
2023/06/26 10:00:42;;;;;;;;;;;22.90;99.90;;;;;;5070038;28;19970;-77
2023/06/26 10:03:08;;;;;;;;;;;23.00;99.90;;;;;;5070500;28;20800;-79
2023/06/26 10:05:33;;;;;;;;;;;23.20;99.90;;;;;;5070081;28;19988;-79
2023/06/26 10:07:59;;;;;;;;;;;23.30;99.90;;;;;;5070936;28;19939;-79
2023/06/26 10:10:26;;;;;;;;;;;23.40;99.90;;;;;;5090933;28;19930;-80
2023/06/26 10:12:54;;;;;;;;;;;23.50;99.90;;;;;;5090146;28;19927;-79
2023/06/26 10:15:20;;;;;;;;;;;23.60;99.90;;;;;;5090603;28;20377;-77
2023/06/26 10:17:46;;;;;;;;;;;23.60;99.30;;;;;;5090035;28;19916;-78
2023/06/26 10:20:15;;;;;;;;;;;23.20;99.30;;;;;;5090199;28;20419;-78
2023/06/26 10:22:45;;;;;;;;;;;22.90;99.40;;;;;;5089089;28;19915;-77
2023/06/26 10:25:12;;;;;;;;;;;22.80;99.90;;;;;;5090019;28;19924;-77
2023/06/26 10:27:40;;;;;;;;;;;23.00;99.90;;;;;;5089439;28;19934;-76
2023/06/26 10:30:09;;;;;;;;;;;23.20;98.70;;;;;;5123727;27;19927;-78
2023/06/26 10:32:35;;;;;;;;;;;23.40;98.60;;;;;;5088950;28;20023;-77
2023/06/26 10:35:03;;;;;;;;;;;23.60;98.40;;;;;;5089863;28;20510;-78
2023/06/26 10:37:42;;;;;;;;;;;23.60;98.50;;;;;;5089986;28;19924;-77
2023/06/26 10:40:08;;;;;;;;;;;23.40;97.90;;;;;;5072540;28;19994;-76
2023/06/26 10:42:38;;;;;;;;;;;23.30;97.90;;;;;;5090470;28;20388;-78
2023/06/26 10:45:17;;;;;;;;;;;23.20;98.00;;;;;;5090410;28;20404;-78
2023/06/26 10:47:51;;;;;;;;;;;23.20;98.30;;;;;;5105863;28;20019;-77
2023/06/26 10:50:23;;;;;;;;;;;23.20;98.70;;;;;;5089541;28;19942;-78
2023/06/26 10:53:33;;;;;;;;;;;23.10;98.60;;;;;;5089873;28;19924;-77
2023/06/26 10:56:00;;;;;;;;;;;22.90;98.60;;;;;;4992232;28;19976;-79
2023/06/26 10:58:39;;;;;;;;;;;22.60;98.80;;;;;;4992352;28;20033;-78
2023/06/26 11:01:11;;;;;;;;;;;22.50;99.30;;;;;;5058088;28;19927;-79
2023/06/26 11:03:37;;;;;;;;;;;22.40;98.60;;;;;;5089560;28;19984;-77
2023/06/26 11:06:10;;;;;;;;;;;22.60;98.80;;;;;;5073386;28;20326;-79
2023/06/26 11:08:49;;;;;;;;;;;23.00;98.40;;;;;;5089372;28;19915;-78
2023/06/26 11:11:16;;;;;;;;;;;23.30;98.10;;;;;;5072987;28;19931;-77
2023/06/26 11:13:42;;;;;;;;;;;23.20;97.60;;;;;;5089504;28;19966;-78
2023/06/26 11:16:08;;;;;;;;;;;23.10;97.70;;;;;;5089631;28;19931;-79
2023/06/26 11:18:33;;;;;;;;;;;23.10;97.50;;;;;;5089716;28;19916;-77
2023/06/26 11:21:09;;;;;;;;;;;23.10;97.30;;;;;;5088842;28;19926;-77
2023/06/26 11:23:36;;;;;;;;;;;23.10;96.60;;;;;;5056319;28;19971;-78
2023/06/26 11:26:23;;;;;;;;;;;22.90;96.50;;;;;;5090767;28;19980;-78
2023/06/26 11:28:49;;;;;;;;;;;22.80;97.00;;;;;;5089412;28;19924;-78
2023/06/26 11:31:32;;;;;;;;;;;22.80;96.80;;;;;;5072763;28;20024;-79
2023/06/26 11:33:59;;;;;;;;;;;22.70;95.90;;;;;;5089287;28;19926;-77
2023/06/26 11:36:25;;;;;;;;;;;22.60;96.40;;;;;;5089561;28;19920;-79
2023/06/26 11:38:55;;;;;;;;;;;22.80;96.70;;;;;;5071725;28;20369;-78
2023/06/26 11:41:21;;;;;;;;;;;23.10;96.50;;;;;;5089362;28;19959;-78
2023/06/26 11:43:46;;;;;;;;;;;23.30;95.90;;;;;;5091698;28;19925;-80
2023/06/26 11:46:12;;;;;;;;;;;23.20;95.80;;;;;;5092846;28;19916;-78
2023/06/26 11:48:41;;;;;;;;;;;23.20;95.90;;;;;;5092796;28;19969;-78
2023/06/26 11:51:06;;;;;;;;;;;23.30;96.10;;;;;;5092751;28;19924;-78
2023/06/26 11:53:39;;;;;;;;;;;23.30;96.20;;;;;;5092768;28;20376;-78
2023/06/26 11:56:07;;;;;;;;;;;23.40;96.30;;;;;;5076161;28;19927;-79
2023/06/26 11:58:33;;;;;;;;;;;23.20;95.50;;;;;;5076721;28;20295;-78
2023/06/26 12:00:58;;;;;;;;;;;23.10;95.10;;;;;;5076146;28;20038;-79
2023/06/26 12:03:24;;;;;;;;;;;23.40;95.20;;;;;;5092966;28;19916;-77
2023/06/26 12:05:52;;;;;;;;;;;23.70;94.80;;;;;;5092647;28;19915;-79
2023/06/26 12:08:18;;;;;;;;;;;23.90;94.10;;;;;;5110575;28;20052;-78
2023/06/26 12:10:45;;;;;;;;;;;23.90;94.00;;;;;;5076434;28;19994;-79
2023/06/26 12:13:10;;;;;;;;;;;24.00;93.40;;;;;;5093243;28;19920;-78
2023/06/26 12:15:36;;;;;;;;;;;24.00;92.80;;;;;;5093044;28;19920;-80
2023/06/26 12:18:07;;;;;;;;;;;24.10;93.00;;;;;;5092925;28;19994;-80
2023/06/26 12:20:33;;;;;;;;;;;24.20;91.80;;;;;;5093195;28;19923;-77
2023/06/26 12:22:58;;;;;;;;;;;24.10;92.20;;;;;;5093323;28;20373;-77
2023/06/26 12:25:24;;;;;;;;;;;24.00;92.40;;;;;;5093117;28;19965;-79
2023/06/26 12:27:50;;;;;;;;;;;23.90;91.60;;;;;;5092586;28;20395;-80
2023/06/26 12:30:15;;;;;;;;;;;23.90;91.70;;;;;;5076703;28;19923;-78
2023/06/26 12:32:44;;;;;;;;;;;24.00;91.50;;;;;;5093338;28;19916;-78
2023/06/26 12:35:10;;;;;;;;;;;23.80;90.90;;;;;;5092791;28;19920;-77
2023/06/26 12:37:37;;;;;;;;;;;23.50;90.70;;;;;;5093482;28;20459;-80
2023/06/26 12:40:05;;;;;;;;;;;23.40;90.50;;;;;;5092477;28;20292;-78
2023/06/26 12:42:33;;;;;;;;;;;23.40;91.00;;;;;;5092503;28;19938;-78
2023/06/26 12:44:59;;;;;;;;;;;23.50;90.80;;;;;;5092293;28;19985;-78
2023/06/26 12:47:26;;;;;;;;;;;23.40;89.10;;;;;;5093555;28;20474;-79
2023/06/26 12:49:53;;;;;;;;;;;23.30;90.20;;;;;;5091902;28;20041;-80
2023/06/26 12:52:19;;;;;;;;;;;23.40;90.60;;;;;;5092940;28;19927;-80
2023/06/26 12:54:46;;;;;;;;;;;23.40;90.40;;;;;;5092069;28;20014;-79
2023/06/26 12:57:13;;;;;;;;;;;23.50;89.90;;;;;;5075529;28;19920;-77
2023/06/26 12:59:40;;;;;;;;;;;23.80;90.60;;;;;;5092367;28;19959;-78
2023/06/26 13:02:06;;;;;;;;;;;24.20;90.20;;;;;;5074655;28;19920;-78
2023/06/26 13:04:32;;;;;;;;;;;24.40;90.10;;;;;;5092469;28;19927;-79
2023/06/26 13:06:58;;;;;;;;;;;24.40;88.70;;;;;;5092084;28;19927;-80
2023/06/26 13:09:24;;;;;;;;;;;24.40;87.60;;;;;;5091954;28;19922;-80
2023/06/26 13:11:53;;;;;;;;;;;24.40;88.70;;;;;;5075506;28;19942;-79
2023/06/26 13:14:19;;;;;;;;;;;24.60;87.70;;;;;;5092461;28;19978;-81
2023/06/26 13:16:44;;;;;;;;;;;24.60;87.70;;;;;;5126428;27;20709;-81
2023/06/26 13:19:10;;;;;;;;;;;24.40;87.10;;;;;;5091941;28;19920;-78
2023/06/26 13:21:36;;;;;;;;;;;24.40;87.80;;;;;;5092222;28;20281;-79
2023/06/26 13:24:03;;;;;;;;;;;24.40;87.90;;;;;;5091824;28;20015;-79
2023/06/26 13:26:29;;;;;;;;;;;24.40;88.00;;;;;;5092045;28;19916;-81
2023/06/26 13:28:55;;;;;;;;;;;24.40;87.40;;;;;;5091223;28;20387;-79
2023/06/26 13:31:20;;;;;;;;;;;24.10;89.60;;;;;;5091896;28;19923;-77
2023/06/26 13:33:48;;;;;;;;;;;23.60;90.70;;;;;;5091958;28;19926;-78
2023/06/26 13:36:14;;;;;;;;;;;23.40;91.20;;;;;;5091625;28;19928;-78
2023/06/26 13:38:39;;;;;;;;;;;23.10;91.90;;;;;;5091528;28;19919;-78
2023/06/26 13:41:06;;;;;;;;;;;23.10;92.20;;;;;;5091326;28;20369;-77
2023/06/26 13:43:32;;;;;;;;;;;23.00;92.50;;;;;;5092187;28;19920;-80
2023/06/26 13:45:58;;;;;;;;;;;22.80;93.00;;;;;;5091993;28;19916;-78
2023/06/26 13:48:26;;;;;;;;;;;22.50;93.70;;;;;;5091885;28;19916;-79
2023/06/26 13:50:53;;;;;;;;;;;22.30;94.50;;;;;;5091391;28;19999;-77
2023/06/26 13:53:18;;;;;;;;;;;22.10;94.60;;;;;;5074746;28;19916;-79
2023/06/26 13:55:44;;;;;;;;;;;22.00;94.90;;;;;;5091793;28;19927;-76
2023/06/26 13:58:11;;;;;;;;;;;21.90;95.10;;;;;;5091722;28;19927;-77
2023/06/26 14:00:44;;;;;;;;;;;21.90;95.10;;;;;;5091072;28;20421;-80
2023/06/26 14:03:09;;;;;;;;;;;21.80;95.20;;;;;;5091406;28;19927;-80
2023/06/26 14:05:35;;;;;;;;;;;21.70;95.20;;;;;;5091729;28;19920;-79
2023/06/26 14:08:02;;;;;;;;;;;21.50;95.20;;;;;;5091628;28;19916;-78
2023/06/26 14:10:33;;;;;;;;;;;21.40;95.70;;;;;;5091855;28;19923;-78
2023/06/26 14:13:00;;;;;;;;;;;21.30;96.30;;;;;;5091545;28;19916;-78
2023/06/26 14:15:25;;;;;;;;;;;21.40;96.10;;;;;;5074237;28;19978;-77